Time;durP1;ratioP1;P1;durP2;ratioP2;P2;SDS_P1;SDS_P2;PMS_P1;PMS_P2;Temp;Humidity;BMP_temperature;BMP_pressure;BME280_temperature;BME280_humidity;BME280_pressure;Samples;Min_cycle;Max_cycle;Signal;HPM_P1;HPM_P2
2023/10/05 00:00:39;;;;;;;7.20;3.27;;;11.10;99.90;;;;;;4196668;28;20252;-77
2023/10/05 00:02:41;;;;;;;10.97;3.40;;;11.10;99.90;;;;;;4197701;28;20190;-77
2023/10/05 00:04:45;;;;;;;8.07;3.50;;;11.10;99.90;;;;;;4199070;28;20232;-77
2023/10/05 00:06:53;;;;;;;10.20;3.83;;;10.90;99.90;;;;;;4197126;28;20280;-77
2023/10/05 00:08:58;;;;;;;8.03;3.00;;;11.00;99.90;;;;;;4200379;28;20695;-77
2023/10/05 00:11:00;;;;;;;11.03;3.70;;;11.00;99.90;;;;;;4198689;28;20664;-77
2023/10/05 00:13:07;;;;;;;8.90;3.43;;;10.90;99.90;;;;;;4201510;28;20314;-77
2023/10/05 00:15:16;;;;;;;7.87;2.80;;;10.90;99.90;;;;;;4203246;28;20212;-78
2023/10/05 00:17:20;;;;;;;7.90;2.90;;;10.90;99.90;;;;;;4200520;28;20211;-77
2023/10/05 00:19:26;;;;;;;9.00;2.80;;;10.90;99.90;;;;;;4203465;28;20229;-77
2023/10/05 00:21:32;;;;;;;8.60;3.30;;;10.90;99.90;;;;;;4201704;28;20209;-77
2023/10/05 00:23:41;;;;;;;9.07;3.50;;;10.80;99.90;;;;;;4202635;28;20221;-77
2023/10/05 00:25:43;;;;;;;11.13;3.77;;;10.80;99.90;;;;;;4198595;28;20288;-77
2023/10/05 00:27:52;;;;;;;9.77;3.27;;;10.80;99.90;;;;;;4191354;28;20261;-77
2023/10/05 00:29:57;;;;;;;7.87;3.30;;;10.90;99.90;;;;;;4199907;28;20233;-77
2023/10/05 00:31:59;;;;;;;8.07;3.50;;;10.90;99.90;;;;;;4179124;28;20273;-77
2023/10/05 00:34:04;;;;;;;8.67;3.60;;;10.90;99.90;;;;;;4202269;28;20200;-77
2023/10/05 00:36:08;;;;;;;8.03;3.33;;;10.80;99.90;;;;;;4192995;28;20204;-77
2023/10/05 00:38:12;;;;;;;7.90;3.37;;;10.80;99.90;;;;;;4193647;28;20220;-77
2023/10/05 00:40:27;;;;;;;8.30;3.80;;;10.80;99.90;;;;;;4200927;28;20290;-77
2023/10/05 00:42:29;;;;;;;9.37;3.67;;;10.80;99.90;;;;;;4197103;28;20303;-78
2023/10/05 00:44:32;;;;;;;8.30;3.37;;;10.70;99.90;;;;;;4200172;28;21142;-77
2023/10/05 00:46:37;;;;;;;11.37;3.60;;;10.70;99.90;;;;;;4195003;28;20296;-77
2023/10/05 00:48:48;;;;;;;7.77;3.23;;;10.70;99.90;;;;;;4199386;28;20204;-77
2023/10/05 00:50:51;;;;;;;5.77;2.97;;;10.70;99.90;;;;;;4190279;28;21540;-77
2023/10/05 00:52:53;;;;;;;7.17;3.23;;;10.60;99.90;;;;;;4190722;28;20229;-77
2023/10/05 00:54:56;;;;;;;9.77;3.60;;;10.70;99.90;;;;;;4197364;28;20247;-77
2023/10/05 00:57:02;;;;;;;7.33;3.00;;;10.60;99.90;;;;;;4198552;28;20227;-77
2023/10/05 00:59:07;;;;;;;9.47;3.37;;;10.60;99.90;;;;;;4195391;28;20247;-77
2023/10/05 01:01:15;;;;;;;7.57;3.10;;;10.60;99.90;;;;;;4190216;28;20219;-77
2023/10/05 01:03:23;;;;;;;6.33;3.03;;;10.60;99.90;;;;;;4201149;28;20243;-77
2023/10/05 01:05:35;;;;;;;7.40;3.10;;;10.60;99.90;;;;;;4200957;28;20235;-77
2023/10/05 01:07:49;;;;;;;9.00;3.43;;;10.60;99.90;;;;;;4197899;28;20208;-77
2023/10/05 01:10:01;;;;;;;6.40;3.20;;;10.90;99.90;;;;;;4199453;28;20232;-77
2023/10/05 01:12:20;;;;;;;7.93;3.47;;;10.60;99.90;;;;;;4198777;28;20308;-77
2023/10/05 01:14:25;;;;;;;7.20;3.33;;;10.60;99.90;;;;;;4191120;28;20217;-77
2023/10/05 01:16:27;;;;;;;7.93;3.07;;;10.60;99.90;;;;;;4189034;28;20212;-77
2023/10/05 01:18:31;;;;;;;7.90;3.57;;;10.60;99.90;;;;;;4199282;28;20644;-77
2023/10/05 01:20:36;;;;;;;9.60;3.27;;;10.60;99.90;;;;;;4195244;28;20229;-77
2023/10/05 01:22:39;;;;;;;12.57;3.47;;;10.60;99.90;;;;;;4198544;28;20296;-77
2023/10/05 01:24:45;;;;;;;6.57;3.30;;;10.60;99.90;;;;;;4200895;28;20924;-77
2023/10/05 01:26:47;;;;;;;8.07;3.37;;;10.60;99.90;;;;;;4201130;28;20262;-77
2023/10/05 01:28:51;;;;;;;9.17;3.30;;;10.60;99.90;;;;;;4207360;28;20199;-78
2023/10/05 01:30:55;;;;;;;9.50;3.57;;;10.50;99.90;;;;;;4179108;28;20293;-78
2023/10/05 01:32:57;;;;;;;7.53;3.17;;;10.60;99.90;;;;;;4204563;28;20215;-78
2023/10/05 01:34:59;;;;;;;9.67;3.40;;;10.60;99.90;;;;;;4184674;28;20258;-77
2023/10/05 01:37:03;;;;;;;9.93;3.30;;;10.50;99.90;;;;;;4187702;28;20295;-77
2023/10/05 01:39:09;;;;;;;8.33;3.53;;;10.60;99.90;;;;;;4206650;28;20695;-78
2023/10/05 01:41:20;;;;;;;7.27;3.10;;;10.60;99.90;;;;;;4203731;28;20236;-78
2023/10/05 01:43:22;;;;;;;7.07;3.43;;;10.60;99.90;;;;;;4197615;28;20283;-78
2023/10/05 01:45:29;;;;;;;10.80;3.67;;;10.50;99.90;;;;;;4204815;28;20240;-78
2023/10/05 01:47:31;;;;;;;8.10;3.53;;;10.50;99.90;;;;;;4200893;28;21191;-78
2023/10/05 01:49:33;;;;;;;7.17;3.37;;;10.50;99.90;;;;;;4202658;28;20244;-77
2023/10/05 01:51:35;;;;;;;10.23;3.60;;;10.50;99.90;;;;;;4200303;28;20204;-78
2023/10/05 01:53:36;;;;;;;6.80;3.30;;;10.50;99.90;;;;;;4195964;28;20240;-78
2023/10/05 01:55:39;;;;;;;5.23;2.47;;;10.50;99.90;;;;;;4197959;28;20217;-77
2023/10/05 01:57:44;;;;;;;9.27;3.37;;;10.50;99.90;;;;;;4202544;28;20287;-77
2023/10/05 01:59:46;;;;;;;8.63;3.33;;;10.50;99.90;;;;;;4202646;28;20254;-76
2023/10/05 02:01:48;;;;;;;7.63;3.63;;;10.50;99.90;;;;;;4200007;28;20236;-76
2023/10/05 02:03:56;;;;;;;8.37;3.30;;;10.40;99.90;;;;;;4197294;28;20204;-76
2023/10/05 02:06:05;;;;;;;8.90;3.20;;;10.50;99.90;;;;;;4200814;28;20286;-77
2023/10/05 02:08:07;;;;;;;9.57;3.40;;;10.40;99.90;;;;;;4202705;28;20679;-78
2023/10/05 02:10:10;;;;;;;11.80;3.40;;;10.40;99.90;;;;;;4197206;28;20654;-77
2023/10/05 02:12:13;;;;;;;7.67;3.40;;;10.50;99.90;;;;;;4199818;28;20264;-77
2023/10/05 02:14:21;;;;;;;9.13;3.40;;;10.50;99.90;;;;;;4196028;28;20790;-77
2023/10/05 02:16:24;;;;;;;9.60;3.53;;;10.50;99.90;;;;;;4201767;28;20212;-77
2023/10/05 02:18:26;;;;;;;8.17;3.57;;;10.50;99.90;;;;;;4203422;28;20201;-77
2023/10/05 02:20:44;;;;;;;9.07;3.27;;;10.50;99.90;;;;;;4200859;28;20307;-77
2023/10/05 02:22:47;;;;;;;12.60;3.90;;;10.50;99.90;;;;;;4201318;28;20243;-77
2023/10/05 02:24:51;;;;;;;11.07;3.63;;;10.50;99.90;;;;;;4203952;28;20685;-77
2023/10/05 02:27:09;;;;;;;10.30;3.33;;;10.40;99.90;;;;;;4200566;28;20852;-77
2023/10/05 02:29:14;;;;;;;9.20;3.73;;;10.50;99.90;;;;;;4155383;28;1107524;-77
2023/10/05 02:31:20;;;;;;;8.27;3.30;;;10.40;99.90;;;;;;4200939;28;20212;-77
2023/10/05 02:33:24;;;;;;;8.63;3.33;;;10.40;99.90;;;;;;4199702;28;20229;-77
2023/10/05 02:35:30;;;;;;;10.57;4.10;;;10.40;99.90;;;;;;4207186;28;20220;-77
2023/10/05 02:37:36;;;;;;;12.67;3.83;;;10.40;99.90;;;;;;4203471;28;20201;-77
2023/10/05 02:39:40;;;;;;;10.93;3.90;;;10.40;99.90;;;;;;4202081;28;20311;-77
2023/10/05 02:41:43;;;;;;;8.57;3.53;;;10.40;99.90;;;;;;4203976;28;20569;-77
2023/10/05 02:43:52;;;;;;;13.13;3.70;;;10.40;99.90;;;;;;4204253;28;20678;-77
2023/10/05 02:46:01;;;;;;;19.57;4.73;;;10.50;99.90;;;;;;4197358;28;20295;-77
2023/10/05 02:48:06;;;;;;;11.03;4.20;;;10.50;99.90;;;;;;4203029;28;20232;-77
2023/10/05 02:50:11;;;;;;;6.73;3.30;;;10.50;99.90;;;;;;4199896;28;20243;-77
2023/10/05 02:52:20;;;;;;;10.00;3.80;;;10.50;99.90;;;;;;4202723;28;20844;-77
2023/10/05 02:54:27;;;;;;;11.30;3.83;;;10.50;99.90;;;;;;4206003;28;20213;-77
2023/10/05 02:56:29;;;;;;;10.37;4.07;;;10.50;99.90;;;;;;4194273;28;20956;-77
2023/10/05 02:58:30;;;;;;;10.70;3.90;;;10.60;99.90;;;;;;4198008;28;20255;-77
2023/10/05 03:00:35;;;;;;;10.37;3.50;;;10.60;99.90;;;;;;4201037;28;20224;-77
2023/10/05 03:02:40;;;;;;;11.77;3.63;;;10.60;99.90;;;;;;4192438;28;20250;-77
2023/10/05 03:04:46;;;;;;;9.80;3.73;;;10.60;99.90;;;;;;4198988;28;20202;-77
2023/10/05 03:06:52;;;;;;;10.17;3.80;;;10.70;99.90;;;;;;4197976;28;20222;-77
2023/10/05 03:08:57;;;;;;;11.07;4.10;;;10.70;99.90;;;;;;4197733;28;20247;-77
2023/10/05 03:11:01;;;;;;;12.07;3.70;;;10.70;99.90;;;;;;4195720;28;20320;-77
2023/10/05 03:13:06;;;;;;;11.60;3.90;;;10.80;99.90;;;;;;4199970;28;20228;-77
2023/10/05 03:15:09;;;;;;;9.30;3.50;;;10.80;99.90;;;;;;4204065;28;21036;-77
2023/10/05 03:17:32;;;;;;;11.40;3.53;;;10.80;99.90;;;;;;4195647;28;20197;-77
2023/10/05 03:19:36;;;;;;;18.27;4.00;;;10.90;99.90;;;;;;4199029;28;20236;-77
2023/10/05 03:21:44;;;;;;;11.30;4.17;;;10.90;99.90;;;;;;4198600;28;20225;-77
2023/10/05 03:23:46;;;;;;;14.60;4.37;;;10.90;99.90;;;;;;4202934;28;20231;-77
2023/10/05 03:25:52;;;;;;;11.03;3.83;;;10.90;99.90;;;;;;4203443;28;20612;-77
2023/10/05 03:27:56;;;;;;;10.50;4.13;;;11.00;99.90;;;;;;4199262;28;20713;-77
2023/10/05 03:30:05;;;;;;;13.17;4.03;;;10.90;99.90;;;;;;4204025;28;20236;-77
2023/10/05 03:32:14;;;;;;;11.50;3.30;;;11.00;99.90;;;;;;4192532;28;20284;-77
2023/10/05 03:34:15;;;;;;;10.10;3.73;;;11.10;99.90;;;;;;4196548;28;20206;-77
2023/10/05 03:36:17;;;;;;;13.27;3.73;;;11.10;99.90;;;;;;4200356;28;20609;-77
2023/10/05 03:38:22;;;;;;;9.43;3.90;;;11.10;99.90;;;;;;4192049;28;20213;-77
2023/10/05 03:40:25;;;;;;;12.53;4.30;;;11.20;99.90;;;;;;4196646;28;20248;-77
2023/10/05 03:42:27;;;;;;;13.40;4.07;;;11.10;99.90;;;;;;4198498;28;20205;-77
2023/10/05 03:44:31;;;;;;;12.80;4.00;;;11.20;99.90;;;;;;4204373;28;20259;-77
2023/10/05 03:46:32;;;;;;;10.90;4.23;;;11.20;99.90;;;;;;4203314;28;20213;-77
2023/10/05 03:48:38;;;;;;;9.90;4.07;;;11.20;99.90;;;;;;4198854;28;20560;-77
2023/10/05 03:50:40;;;;;;;12.60;4.30;;;11.20;99.90;;;;;;4199286;28;20251;-77
2023/10/05 03:52:44;;;;;;;14.17;4.20;;;11.20;99.90;;;;;;4198832;28;20704;-77
2023/10/05 03:54:47;;;;;;;11.73;4.40;;;11.30;99.90;;;;;;4203105;28;20251;-77
2023/10/05 03:56:50;;;;;;;12.23;4.23;;;11.30;99.90;;;;;;4197139;28;20974;-77
2023/10/05 03:58:53;;;;;;;10.60;3.97;;;11.30;99.90;;;;;;4200435;28;20217;-77
2023/10/05 04:00:54;;;;;;;12.30;4.10;;;11.30;99.90;;;;;;4200540;28;20817;-77
2023/10/05 04:02:57;;;;;;;10.40;4.33;;;11.30;99.90;;;;;;4196761;28;20199;-77
2023/10/05 04:05:09;;;;;;;11.80;3.80;;;11.30;99.90;;;;;;4201073;28;20202;-77
2023/10/05 04:07:12;;;;;;;13.60;4.40;;;11.30;99.90;;;;;;4196303;28;20295;-77
2023/10/05 04:09:16;;;;;;;10.47;4.10;;;11.40;99.90;;;;;;4199854;28;20280;-77
2023/10/05 04:11:21;;;;;;;13.53;4.10;;;11.40;99.90;;;;;;4195704;28;20217;-77
2023/10/05 04:13:24;;;;;;;9.60;3.67;;;11.30;99.90;;;;;;4198562;28;20225;-77
2023/10/05 04:15:26;;;;;;;9.50;4.00;;;11.40;99.90;;;;;;4197738;28;20220;-77
2023/10/05 04:17:28;;;;;;;10.83;4.03;;;11.30;99.90;;;;;;4200601;28;20374;-77
2023/10/05 04:19:31;;;;;;;15.33;4.13;;;11.30;99.90;;;;;;4203491;28;20217;-77
2023/10/05 04:21:33;;;;;;;12.70;4.13;;;11.30;99.90;;;;;;4199408;28;20694;-77
2023/10/05 04:23:34;;;;;;;10.53;3.87;;;11.30;99.90;;;;;;4202814;28;20895;-77
2023/10/05 04:25:36;;;;;;;15.20;4.17;;;11.30;99.90;;;;;;4197437;28;20276;-77
2023/10/05 04:27:40;;;;;;;11.10;3.63;;;11.30;99.90;;;;;;4199708;28;20271;-77
2023/10/05 04:29:45;;;;;;;10.53;4.10;;;11.30;99.90;;;;;;4195730;28;20240;-77
2023/10/05 04:31:48;;;;;;;15.70;4.27;;;11.30;99.90;;;;;;4189677;28;20205;-77
2023/10/05 04:33:54;;;;;;;12.67;4.37;;;11.30;99.90;;;;;;4196064;28;20255;-77
2023/10/05 04:35:59;;;;;;;13.17;4.40;;;11.30;99.90;;;;;;4198377;28;20575;-77
2023/10/05 04:38:05;;;;;;;14.40;4.53;;;11.30;99.90;;;;;;4204630;28;20242;-77
2023/10/05 04:40:10;;;;;;;12.60;4.70;;;11.30;99.90;;;;;;4185035;28;20248;-77
2023/10/05 04:42:16;;;;;;;12.43;4.50;;;11.30;99.90;;;;;;4198096;28;20637;-77
2023/10/05 04:44:22;;;;;;;13.57;4.40;;;11.30;99.90;;;;;;4203515;28;20288;-77
2023/10/05 04:46:24;;;;;;;11.33;4.23;;;11.20;99.90;;;;;;4204087;28;20212;-78
2023/10/05 04:48:26;;;;;;;12.43;3.97;;;11.30;99.90;;;;;;4203916;28;20213;-77
2023/10/05 04:50:28;;;;;;;12.90;4.57;;;11.30;99.90;;;;;;4202195;28;20255;-78
2023/10/05 04:52:33;;;;;;;12.50;4.00;;;11.30;99.90;;;;;;4190054;28;20261;-77
2023/10/05 04:54:38;;;;;;;13.13;4.60;;;11.30;99.90;;;;;;4197679;28;20735;-77
2023/10/05 04:56:53;;;;;;;13.83;4.30;;;11.30;99.90;;;;;;4187306;28;20264;-77
2023/10/05 04:59:18;;;;;;;14.03;4.23;;;11.30;99.90;;;;;;4202075;28;20198;-78
2023/10/05 05:01:29;;;;;;;12.30;4.10;;;11.30;99.90;;;;;;4197690;28;20298;-78
2023/10/05 05:03:48;;;;;;;11.83;4.50;;;11.40;99.90;;;;;;4195772;28;20345;-77
2023/10/05 05:06:10;;;;;;;13.83;4.17;;;11.40;99.90;;;;;;4200694;28;20552;-77
2023/10/05 05:08:13;;;;;;;14.23;4.37;;;11.40;99.90;;;;;;4200047;28;20205;-77
2023/10/05 05:10:20;;;;;;;10.47;3.93;;;11.40;99.90;;;;;;4200089;28;20229;-78
2023/10/05 05:12:24;;;;;;;15.80;4.63;;;11.30;99.90;;;;;;4197389;28;20845;-77
2023/10/05 05:14:27;;;;;;;11.83;4.60;;;11.30;99.90;;;;;;4197468;28;20220;-78
2023/10/05 05:16:30;;;;;;;16.97;4.17;;;11.30;99.90;;;;;;4199911;28;20695;-78
2023/10/05 05:18:37;;;;;;;14.50;5.23;;;11.30;99.90;;;;;;4200663;28;20207;-77
2023/10/05 05:20:40;;;;;;;15.73;4.57;;;11.30;99.90;;;;;;4195782;28;20244;-77
2023/10/05 05:22:46;;;;;;;13.50;4.53;;;11.40;99.90;;;;;;4199654;28;20210;-78
2023/10/05 05:24:50;;;;;;;28.23;11.40;;;11.30;99.90;;;;;;4197296;28;20216;-77
2023/10/05 05:26:53;;;;;;;19.43;6.30;;;11.30;99.90;;;;;;4198066;28;20228;-78
2023/10/05 05:28:56;;;;;;;11.87;4.67;;;11.40;99.90;;;;;;4203552;28;20208;-78
2023/10/05 05:31:08;;;;;;;13.33;4.77;;;11.70;99.90;;;;;;4197270;28;20440;-78
2023/10/05 05:33:11;;;;;;;16.17;4.40;;;11.40;99.90;;;;;;4194163;28;20784;-78
2023/10/05 05:35:15;;;;;;;12.20;4.50;;;11.40;99.90;;;;;;4196267;28;20244;-78
2023/10/05 05:37:27;;;;;;;15.23;4.60;;;11.40;99.90;;;;;;4199656;28;20204;-78
2023/10/05 05:39:32;;;;;;;9.37;4.00;;;11.50;99.90;;;;;;4200828;28;20322;-78
2023/10/05 05:41:37;;;;;;;14.73;4.83;;;11.50;99.90;;;;;;4197350;28;20197;-79
2023/10/05 05:43:39;;;;;;;13.97;4.77;;;11.50;99.90;;;;;;4205114;28;20193;-78
2023/10/05 05:45:43;;;;;;;13.37;4.50;;;11.50;99.90;;;;;;4199757;28;20197;-78
2023/10/05 05:47:46;;;;;;;17.20;4.23;;;11.60;99.90;;;;;;4190354;28;20202;-79
2023/10/05 05:49:50;;;;;;;12.03;4.63;;;11.60;99.90;;;;;;4197155;28;20301;-79
2023/10/05 05:51:52;;;;;;;17.30;4.87;;;11.60;99.90;;;;;;4202219;28;20206;-79
2023/10/05 05:53:56;;;;;;;13.73;4.07;;;11.70;99.90;;;;;;4200687;28;20765;-79
2023/10/05 05:56:01;;;;;;;12.07;3.90;;;11.70;99.90;;;;;;4198668;28;20200;-79
2023/10/05 05:58:04;;;;;;;14.47;4.17;;;11.70;99.90;;;;;;4197000;28;20212;-78
2023/10/05 06:00:12;;;;;;;15.13;4.50;;;11.70;99.90;;;;;;4198960;28;20224;-78
2023/10/05 06:02:14;;;;;;;11.80;4.23;;;11.80;99.90;;;;;;4192383;28;20247;-78
2023/10/05 06:04:15;;;;;;;15.60;4.57;;;11.80;99.90;;;;;;4192300;28;20202;-78
2023/10/05 06:06:23;;;;;;;15.43;4.47;;;11.80;99.90;;;;;;4198506;28;20816;-78
2023/10/05 06:08:26;;;;;;;13.20;4.13;;;11.90;99.90;;;;;;4184028;28;20217;-78
2023/10/05 06:10:34;;;;;;;15.57;4.60;;;11.90;99.90;;;;;;4200931;28;20231;-78
2023/10/05 06:12:36;;;;;;;9.60;3.83;;;11.90;99.90;;;;;;4192840;28;20288;-78
2023/10/05 06:14:38;;;;;;;14.53;4.33;;;11.90;99.90;;;;;;4198970;28;20225;-78
2023/10/05 06:16:40;;;;;;;12.13;4.43;;;11.90;99.90;;;;;;4204238;28;20264;-78
2023/10/05 06:18:43;;;;;;;11.27;4.03;;;12.00;99.90;;;;;;4198320;28;20209;-78
2023/10/05 06:20:47;;;;;;;11.60;4.10;;;11.90;99.90;;;;;;4202852;28;20226;-78
2023/10/05 06:22:50;;;;;;;13.90;4.43;;;11.90;99.90;;;;;;4193542;28;20210;-78
2023/10/05 06:24:52;;;;;;;10.90;3.67;;;11.90;99.90;;;;;;4197734;28;20610;-78
2023/10/05 06:26:54;;;;;;;14.27;4.90;;;11.90;99.90;;;;;;4196687;28;20232;-78
2023/10/05 06:28:56;;;;;;;16.63;4.57;;;11.90;99.90;;;;;;4208301;28;20793;-78
2023/10/05 06:30:58;;;;;;;10.77;3.97;;;11.90;99.90;;;;;;4206892;28;20221;-79
2023/10/05 06:33:01;;;;;;;12.93;3.93;;;12.00;99.90;;;;;;4212579;28;20196;-79
2023/10/05 06:35:07;;;;;;;11.83;4.50;;;12.00;99.90;;;;;;4212655;28;20240;-79
2023/10/05 06:37:11;;;;;;;11.17;4.67;;;12.00;99.90;;;;;;4213257;28;20209;-79
2023/10/05 06:39:14;;;;;;;10.97;4.13;;;12.10;99.90;;;;;;4206555;28;20245;-79
2023/10/05 06:41:22;;;;;;;12.73;3.70;;;12.10;99.90;;;;;;4191100;28;20545;-79
2023/10/05 06:43:26;;;;;;;11.37;3.90;;;12.10;99.90;;;;;;4197409;28;20644;-78
2023/10/05 06:45:28;;;;;;;11.70;4.07;;;12.20;99.90;;;;;;4199216;28;20201;-78
2023/10/05 06:47:36;;;;;;;8.80;3.77;;;12.20;99.90;;;;;;4180660;28;20228;-78
2023/10/05 06:49:38;;;;;;;13.87;4.77;;;12.30;99.90;;;;;;4191525;28;20222;-78
2023/10/05 06:51:43;;;;;;;12.67;3.80;;;12.30;99.90;;;;;;4187369;28;20218;-78
2023/10/05 06:53:45;;;;;;;9.00;3.90;;;12.40;99.90;;;;;;4195366;28;20221;-79
2023/10/05 06:55:48;;;;;;;10.80;3.77;;;12.40;99.90;;;;;;4202823;28;20205;-79
2023/10/05 06:57:50;;;;;;;11.90;3.47;;;12.40;99.90;;;;;;4204152;28;20207;-79
2023/10/05 06:59:55;;;;;;;12.50;4.23;;;12.60;99.90;;;;;;4201470;28;20317;-79
2023/10/05 07:01:57;;;;;;;11.40;3.60;;;12.60;99.90;;;;;;4205891;28;20213;-79
2023/10/05 07:03:59;;;;;;;12.87;4.10;;;12.70;99.90;;;;;;4199667;28;20257;-78
2023/10/05 07:06:01;;;;;;;14.90;3.90;;;12.70;99.90;;;;;;4201700;28;20194;-78
2023/10/05 07:08:11;;;;;;;12.23;3.80;;;12.70;99.90;;;;;;4193819;28;20202;-79
2023/10/05 07:10:16;;;;;;;12.60;4.13;;;12.70;99.90;;;;;;4194990;28;20306;-79
2023/10/05 07:12:19;;;;;;;12.63;4.17;;;12.70;99.90;;;;;;4195969;28;20212;-78
2023/10/05 07:14:21;;;;;;;10.10;4.00;;;12.70;99.90;;;;;;4183727;28;20218;-78
2023/10/05 07:16:24;;;;;;;16.03;4.63;;;12.70;99.90;;;;;;4203207;28;20576;-78
2023/10/05 07:18:27;;;;;;;13.17;3.50;;;12.80;99.90;;;;;;4199751;28;20222;-78
2023/10/05 07:20:29;;;;;;;12.83;3.90;;;12.80;99.90;;;;;;4211115;28;20221;-78
2023/10/05 07:22:30;;;;;;;10.70;3.90;;;12.80;99.90;;;;;;4207702;28;20194;-78
2023/10/05 07:24:32;;;;;;;12.73;4.13;;;12.80;99.90;;;;;;4203346;28;20194;-78
2023/10/05 07:26:34;;;;;;;12.13;4.07;;;12.90;99.90;;;;;;4201654;28;20207;-78
2023/10/05 07:28:38;;;;;;;11.23;3.80;;;12.90;99.90;;;;;;4196436;28;20296;-78
2023/10/05 07:30:40;;;;;;;16.93;3.80;;;12.90;99.90;;;;;;4199313;28;20234;-78
2023/10/05 07:32:42;;;;;;;11.23;3.47;;;12.90;99.90;;;;;;4201910;28;20297;-79
2023/10/05 07:34:44;;;;;;;9.80;4.00;;;13.00;99.90;;;;;;4196197;28;20304;-79
2023/10/05 07:36:46;;;;;;;14.73;4.27;;;13.00;99.90;;;;;;4199741;28;20260;-79
2023/10/05 07:38:48;;;;;;;12.33;3.87;;;13.10;99.90;;;;;;4200480;28;20258;-79
2023/10/05 07:40:50;;;;;;;9.50;3.50;;;13.10;99.90;;;;;;4198183;28;20309;-79
2023/10/05 07:42:52;;;;;;;12.40;3.73;;;13.10;99.90;;;;;;4196464;28;20255;-79
2023/10/05 07:44:56;;;;;;;8.70;3.27;;;13.10;99.90;;;;;;4196047;28;20205;-79
2023/10/05 07:46:59;;;;;;;13.23;3.93;;;13.10;99.90;;;;;;4202543;28;20281;-80
2023/10/05 07:49:01;;;;;;;11.87;3.60;;;13.20;99.90;;;;;;4194981;28;20232;-77
2023/10/05 07:51:03;;;;;;;10.10;3.83;;;13.20;99.90;;;;;;4203008;28;20218;-78
2023/10/05 07:53:05;;;;;;;9.77;3.37;;;13.20;99.90;;;;;;4198599;28;20231;-78
2023/10/05 07:55:13;;;;;;;9.80;3.17;;;13.30;99.90;;;;;;4190916;28;20272;-79
2023/10/05 07:57:15;;;;;;;9.87;3.70;;;13.40;99.90;;;;;;4207446;28;20211;-78
2023/10/05 07:59:17;;;;;;;11.90;3.77;;;13.40;99.90;;;;;;4206784;28;20779;-78
2023/10/05 08:01:21;;;;;;;10.00;3.83;;;13.50;99.90;;;;;;4203096;28;20603;-78
2023/10/05 08:03:23;;;;;;;10.07;3.13;;;13.50;99.90;;;;;;4199797;28;20211;-78
2023/10/05 08:05:26;;;;;;;9.63;3.30;;;13.60;99.90;;;;;;4202166;28;20283;-78
2023/10/05 08:07:28;;;;;;;11.13;3.70;;;13.60;99.90;;;;;;4205800;28;20290;-78
2023/10/05 08:09:30;;;;;;;11.67;3.63;;;13.60;99.90;;;;;;4196705;28;20440;-78
2023/10/05 08:11:32;;;;;;;8.07;3.23;;;13.70;99.90;;;;;;4200865;28;20703;-78
2023/10/05 08:13:34;;;;;;;11.87;3.50;;;13.70;99.90;;;;;;4201716;28;20207;-78
2023/10/05 08:15:36;;;;;;;10.17;3.63;;;13.70;99.90;;;;;;4199288;28;20589;-78
2023/10/05 08:17:40;;;;;;;9.33;3.43;;;13.70;99.90;;;;;;4201178;28;20204;-78
2023/10/05 08:19:42;;;;;;;8.43;3.57;;;13.70;99.90;;;;;;4197108;28;20314;-78
2023/10/05 08:21:44;;;;;;;13.07;3.77;;;13.80;99.90;;;;;;4200245;28;20205;-78
2023/10/05 08:23:50;;;;;;;10.70;3.37;;;13.80;99.90;;;;;;4197548;28;20231;-79
2023/10/05 08:25:52;;;;;;;13.37;3.60;;;13.90;99.90;;;;;;4190912;28;20211;-79
2023/10/05 08:27:57;;;;;;;11.00;3.40;;;13.90;99.90;;;;;;4198525;28;20263;-79
2023/10/05 08:30:00;;;;;;;16.00;4.00;;;13.90;99.90;;;;;;4194743;28;20229;-78
2023/10/05 08:32:02;;;;;;;14.80;3.80;;;14.00;99.90;;;;;;4201638;28;20259;-78
2023/10/05 08:34:08;;;;;;;15.93;3.60;;;14.10;99.90;;;;;;4197767;28;20208;-78
2023/10/05 08:36:17;;;;;;;10.23;3.17;;;14.10;99.90;;;;;;4195224;28;20917;-78
2023/10/05 08:38:23;;;;;;;8.17;3.20;;;14.10;99.90;;;;;;4197322;28;20614;-76
2023/10/05 08:40:37;;;;;;;11.07;3.50;;;14.20;99.90;;;;;;4198814;28;20217;-79
2023/10/05 08:42:42;;;;;;;10.10;3.00;;;14.20;99.90;;;;;;4196494;28;20232;-79
2023/10/05 08:44:45;;;;;;;10.40;4.00;;;14.30;99.90;;;;;;4196493;28;20198;-78
2023/10/05 08:46:47;;;;;;;10.83;3.37;;;14.30;99.90;;;;;;4195285;28;20646;-78
2023/10/05 08:48:50;;;;;;;11.80;3.93;;;14.30;99.90;;;;;;4201560;28;20201;-78
2023/10/05 08:50:56;;;;;;;11.20;3.50;;;14.40;99.90;;;;;;4205998;28;20221;-78
2023/10/05 08:52:57;;;;;;;11.03;3.10;;;14.40;99.90;;;;;;4203516;28;20206;-79
2023/10/05 08:54:59;;;;;;;9.57;3.20;;;14.40;99.90;;;;;;4201143;28;20267;-78
2023/10/05 08:57:09;;;;;;;8.87;3.80;;;14.40;99.90;;;;;;4203204;28;20217;-78
2023/10/05 08:59:13;;;;;;;10.83;2.97;;;14.50;99.90;;;;;;4207984;28;20231;-77
2023/10/05 09:01:23;;;;;;;7.63;3.17;;;14.50;99.90;;;;;;4204505;28;20220;-78
2023/10/05 09:03:35;;;;;;;10.77;3.63;;;14.60;99.90;;;;;;4200692;28;20213;-78
2023/10/05 09:06:13;;;;;;;10.13;3.50;;;14.70;99.90;;;;;;4195464;28;20213;-78
2023/10/05 09:08:18;;;;;;;8.37;3.40;;;14.70;99.90;;;;;;4201676;28;20194;-78
2023/10/05 09:10:26;;;;;;;11.23;3.83;;;14.70;99.90;;;;;;4207473;28;20221;-79
2023/10/05 09:12:36;;;;;;;10.33;3.30;;;14.80;99.90;;;;;;4178597;28;20229;-79
2023/10/05 09:14:39;;;;;;;9.23;2.97;;;14.80;99.90;;;;;;4206108;28;20229;-78
2023/10/05 09:16:47;;;;;;;11.07;3.00;;;14.80;99.90;;;;;;4206145;28;20547;-79
2023/10/05 09:18:48;;;;;;;9.33;3.53;;;14.90;99.90;;;;;;4199513;28;20671;-79
2023/10/05 09:20:51;;;;;;;14.37;3.17;;;15.00;99.90;;;;;;4204465;28;20217;-79
2023/10/05 09:22:55;;;;;;;10.10;3.20;;;15.10;99.90;;;;;;4201292;28;20209;-78
2023/10/05 09:24:59;;;;;;;8.97;3.23;;;15.10;99.90;;;;;;4204471;28;20247;-78
2023/10/05 09:27:12;;;;;;;9.27;2.83;;;15.20;99.90;;;;;;4205969;28;20260;-77
2023/10/05 09:29:20;;;;;;;8.77;3.17;;;15.30;99.90;;;;;;4200558;28;20235;-78
2023/10/05 09:31:36;;;;;;;7.90;2.93;;;15.40;99.90;;;;;;4200231;28;20201;-79
2023/10/05 09:33:49;;;;;;;8.40;2.97;;;15.50;99.90;;;;;;4185881;28;20241;-80
2023/10/05 09:35:51;;;;;;;9.17;3.00;;;15.50;99.90;;;;;;4197239;28;20220;-78
2023/10/05 09:37:53;;;;;;;6.87;2.73;;;15.60;99.90;;;;;;4202650;28;20214;-78
2023/10/05 09:40:01;;;;;;;9.83;3.03;;;15.70;99.90;;;;;;4197933;28;20700;-79
2023/10/05 09:42:04;;;;;;;11.70;3.57;;;15.70;99.90;;;;;;4195904;28;20290;-78
2023/10/05 09:44:09;;;;;;;11.93;3.67;;;15.70;99.90;;;;;;4201679;28;20210;-79
2023/10/05 09:46:14;;;;;;;8.00;3.20;;;15.70;99.90;;;;;;4203751;28;20212;-78
2023/10/05 09:48:19;;;;;;;9.87;3.27;;;15.70;99.90;;;;;;4201104;28;20214;-78
2023/10/05 09:50:26;;;;;;;8.60;3.10;;;15.70;99.90;;;;;;4198533;28;20706;-79
2023/10/05 09:52:34;;;;;;;8.00;3.03;;;15.80;99.90;;;;;;4200448;28;20200;-79
2023/10/05 09:54:37;;;;;;;9.97;3.10;;;15.80;99.90;;;;;;4197671;28;20212;-78
2023/10/05 09:56:41;;;;;;;10.53;3.00;;;15.90;99.90;;;;;;4200299;28;20194;-78
2023/10/05 09:58:45;;;;;;;9.57;3.40;;;16.00;99.90;;;;;;4196488;28;20202;-79
2023/10/05 10:00:49;;;;;;;9.13;2.83;;;16.00;99.90;;;;;;4182554;28;20227;-78
2023/10/05 10:02:51;;;;;;;9.33;3.33;;;16.10;99.90;;;;;;4197072;28;20677;-78
2023/10/05 10:04:54;;;;;;;6.20;2.70;;;16.10;99.90;;;;;;4201989;28;20206;-78
2023/10/05 10:06:58;;;;;;;8.07;3.20;;;16.10;99.90;;;;;;4200271;28;20202;-79
2023/10/05 10:09:09;;;;;;;10.77;3.13;;;16.10;99.90;;;;;;4197682;28;20643;-78
2023/10/05 10:11:18;;;;;;;10.10;3.00;;;16.10;99.90;;;;;;4196436;28;20237;-79
2023/10/05 10:13:22;;;;;;;8.40;3.00;;;16.10;99.90;;;;;;4200750;28;20214;-79
2023/10/05 10:15:28;;;;;;;10.67;2.80;;;16.20;99.90;;;;;;4196430;28;20308;-79
2023/10/05 10:17:33;;;;;;;7.37;2.40;;;16.10;99.90;;;;;;4188655;28;20203;-78
2023/10/05 10:19:45;;;;;;;13.70;3.17;;;16.10;99.90;;;;;;4200604;28;20222;-79
2023/10/05 10:21:53;;;;;;;9.53;2.60;;;16.20;99.90;;;;;;4204603;28;20234;-79
2023/10/05 10:24:03;;;;;;;8.13;2.60;;;16.20;99.90;;;;;;4203673;28;20237;-79
2023/10/05 10:26:07;;;;;;;8.43;2.80;;;16.20;99.90;;;;;;4204860;28;20206;-78
2023/10/05 10:28:16;;;;;;;9.93;3.20;;;16.30;99.90;;;;;;4207225;28;20213;-78
2023/10/05 10:30:24;;;;;;;7.27;2.67;;;16.30;99.90;;;;;;4200370;28;20286;-78
2023/10/05 10:32:31;;;;;;;9.30;2.70;;;16.40;99.90;;;;;;4204271;28;20690;-79
2023/10/05 10:34:49;;;;;;;11.63;3.07;;;16.40;99.90;;;;;;4203235;28;20640;-79
2023/10/05 10:36:53;;;;;;;9.67;2.73;;;16.50;99.90;;;;;;4206098;28;20214;-80
2023/10/05 10:38:59;;;;;;;8.23;2.90;;;16.60;99.90;;;;;;4207177;28;21341;-79
2023/10/05 10:41:07;;;;;;;8.57;2.83;;;16.70;99.90;;;;;;4203964;28;20276;-79
2023/10/05 10:43:12;;;;;;;9.40;2.77;;;16.70;99.90;;;;;;4202464;28;20209;-79
2023/10/05 10:45:23;;;;;;;9.93;2.90;;;16.70;99.90;;;;;;4204536;28;20215;-79